CDT,Max TemperatureF,Mean TemperatureF,Min TemperatureF,Max Dew PointF,MeanDew PointF,Min DewpointF,Max Humidity, Mean Humidity, Min Humidity, Max Sea Level PressureIn, Mean Sea Level PressureIn, Min Sea Level PressureIn, Max VisibilityMiles, Mean VisibilityMiles, Min VisibilityMiles, Max Wind SpeedMPH, Mean Wind SpeedMPH, Max Gust SpeedMPH,PrecipitationIn, CloudCover, Events, WindDirDegrees
2010-10-1,75,59,42,51,45,41,96,64,31,30.19,30.10,30.01,10,10,8,12,3,15,0.00,0,,283
2010-10-2,63,54,44,52,44,36,96,69,42,30.31,30.16,29.99,10,10,8,24,10,30,0.19,5,Rain,351
2010-10-3,63,51,39,41,37,35,85,62,39,30.43,30.36,30.31,10,10,10,16,8,20,0.00,1,,5
2010-10-4,64,49,33,42,37,33,100,67,34,30.46,30.40,30.36,10,10,8,10,2,18,0.00,0,,356
2010-10-5,70,52,34,43,38,33,92,60,28,30.46,30.37,30.30,10,10,9,8,1,12,0.00,0,,349
2010-10-6,79,59,39,50,44,37,93,61,28,30.30,30.17,30.04,10,10,10,18,7,23,0.00,0,,254
2010-10-7,79,63,46,50,45,36,93,58,22,30.18,30.13,30.05,10,10,4,9,4,13,0.00,0,,313
2010-10-8,80,61,41,48,43,39,93,58,23,30.17,30.10,30.04,10,10,10,12,3,21,0.00,0,,226
2010-10-9,87,70,52,58,51,45,87,59,30,30.07,30.03,29.99,10,10,10,13,2,16,0.00,0,,206
2010-10-10,85,69,52,58,51,45,93,60,26,30.00,29.94,29.86,10,9,7,15,4,21,0.00,0,,204
2010-10-11,85,71,56,55,52,46,86,57,27,29.89,29.86,29.81,10,10,10,12,3,14,0.00,0,,305
2010-10-12,79,68,57,58,55,53,93,68,42,29.98,29.91,29.86,10,10,10,9,4,9,T,2,,352
2010-10-13,72,59,46,55,45,34,93,60,27,30.19,30.09,29.99,10,10,6,22,10,28,0.00,1,,323
2010-10-14,71,54,37,41,34,26,85,53,20,30.20,30.08,29.88,10,10,10,20,8,24,0.00,0,,250
2010-10-15,68,55,42,39,37,33,83,56,29,30.15,30.07,29.88,10,10,10,15,7,22,0.00,0,,329
2010-10-16,75,57,38,42,39,36,92,59,25,30.17,30.10,30.01,10,10,9,18,9,24,0.00,0,,195
2010-10-17,74,62,50,45,42,37,77,52,27,30.12,30.06,30.01,10,10,10,12,5,18,0.00,0,,5
2010-10-18,67,54,41,41,36,29,77,51,24,30.04,29.99,29.94,10,10,10,15,6,18,T,1,Rain,56
2010-10-19,66,50,33,41,36,31,92,62,31,30.09,30.03,29.98,10,10,10,12,1,16,0.00,0,,250
2010-10-20,72,56,40,40,37,34,76,51,25,29.98,29.89,29.82,10,10,7,21,11,30,0.00,0,,247
2010-10-21,64,51,38,38,32,26,73,49,24,30.10,30.01,29.86,10,10,8,17,7,23,0.00,0,,308
2010-10-22,73,54,34,38,34,31,89,57,25,30.19,30.10,30.03,10,10,10,18,8,22,0.00,1,,169
2010-10-23,79,68,57,56,48,38,78,58,37,30.04,29.95,29.88,10,10,4,23,12,29,0.13,5,Rain-Thunderstorm,173
2010-10-24,77,68,59,63,56,44,93,70,47,29.88,29.74,29.64,10,9,4,25,12,33,0.40,4,Rain-Thunderstorm,193
2010-10-25,73,65,57,64,61,55,100,82,64,29.64,29.49,29.25,10,7,0,30,15,39,0.00,3,Fog,176
2010-10-26,73,63,52,64,51,37,78,61,43,29.60,29.30,29.06,10,9,1,35,21,47,0.27,3,Rain-Thunderstorm,220
2010-10-27,68,57,46,38,34,27,54,38,21,30.00,29.75,29.60,10,10,10,32,17,41,0.00,0,,236
2010-10-28,48,39,30,34,32,28,82,68,53,30.40,30.25,30.02,10,10,10,21,12,25,T,5,,293
2010-10-29,56,42,27,30,26,20,100,62,24,30.44,30.33,30.14,10,10,8,16,5,21,0.00,0,,219
2010-10-30,68,56,43,38,32,27,66,47,27,30.11,29.96,29.85,10,10,10,24,11,30,0.00,0,,236
2010-10-31,57,48,38,40,34,30,89,65,40,30.29,30.15,29.96,10,10,7,20,11,25,0.00,0,,48